Olympic National Park, WA

12:53 PM PDT am 23. Oktober 2014 (GMT -0700)
Lake Dawn | Change Station
CLOSE
Current Station
Persönliche Wetterstationen
Location: Port Angeles, WA
Höhe: 1864 ft
Wetterstationen in der Umgebung
aktive Warnung: Flood Warning aktiver Hinweis: Record Report

Höhe 1864 ft 48.04 °N, 123.43 °W | Updated 8 minutes ago

Regen
Regen
48.4 °F
gefühlte 48 °F
N
0.0
Wind Wechselnd Wind aus Süd-Südwest
Gusts 1.6 mph

Heute
Max. -- | schwach -- °F
--% Regenrisiko
Gestern
Max. -- | schwach -- °F
Precip. -- inch
7:45 AM 6:10 PM
Letztes Viertel, 0% visible
Druck 29.78 inch
Sichtweite 10.0 Meilen
Wolken Teils Wolkig 1100 ft
Wolkig 6000 ft
Bedeckt 8000 ft
Windchill 48 °F
Taupunkt 48 °F
Feuchtigkeit 99%
Regen 0.44 inch
Schneehöhe Nicht verfügbar..
UV 1 von 12
Pollen .40 von 12
PM2.5 Gut
Flu Activity Sporadic
SPECI KFHR 231928Z AUTO 16007KT 10SM -RA SCT011 BKN060 OVC080 12/11 A2978 RMK AO2 RAB24 P0000 T01170106

More Conditions Fewer Conditions

Druck 29.78 inch
Sichtweite 10.0 Meilen
Wolken Teils Wolkig 1100 ft
Wolkig 6000 ft
Bedeckt 8000 ft
Windchill 48 °F
Taupunkt 48 °F
Feuchtigkeit 99%
Regen 0.44 inch
Schneehöhe Nicht verfügbar..
UV 1 von 12
Pollen .40 von 12
PM2.5 Gut
Flu Activity Sporadic
SPECI KFHR 231928Z AUTO 16007KT 10SM -RA SCT011 BKN060 OVC080 12/11 A2978 RMK AO2 RAB24 P0000 T01170106

More Conditions Fewer Conditions

10-Day Weather Forecast

Almanac

Astronomie

Oct. 23, 2014 Aufgang Untergang
Genaue Zeit 07:45 PDT 18:10 PDT
Bürgerliche Dämmerung 07:13 PDT 18:42 PDT
Nautische Dämmerung 06:37 PDT 19:18 PDT
Astronomische Dämmerung 06:01 PDT 19:54 PDT
Mond 07:29 PDT 18:14 PDT
Länge des sichtbaren Lichts 11h 28m
Tageslänge
10h 24m
Tomorrow will be 3m 17s shorter.
Letztes Viertel, 0% of the Moon is Illuminated
Heute
Letztes Viertel
Okt 23
Neu
Okt 30
Erstes Viertel
Nov 6
Vollmond
Nov 14
Letztes Viertel

Heutige Rekorde

State Highs State Lows

Community

WunderPhotos

Upload Photos

1,764,350 Fotos hochgeladen!

WunderBlogs® & News

By Dr. Jeff Masters
Director of Meteorology, Weather Underground
By Kari Strenfel
Meteorologist, Weather Underground
By Christopher C. Burt
Weather Historian, Weather Underground
October 23, 2014
October 23, 2014
October 23, 2014

Nearby

Luftqualität

  Luftqualität LQ Index Schadstoff
Gestern Gut
PM2.5
Aktuell Gut
PM2.5

Schneehöhe

Station Depth Höhe
Dungeness 0 in 4100 ft
Alpine Meadows 0 in 3500 ft
Elbow Lake 0 in 3200 ft
Skookum Creek 0 in 3920 ft
Wells Creek 0 in 4200 ft

Erdbebenaktivität

Stadt Distance Mag. Time & Date
No recent earthquake activity has been reported nearby.
Minimum magnitude displayed is 2.5.

küstennahe Wassertemperaturen

Ort Temperatur
Port Angeles, WA 57.0 °F
Friday Harbor, WA 51.1 °F
Port Townsend, WA 52.0 °F
La Push, WA 57.9 °F

Wetterstationen in der Umgebung